Terminal Aerodrome Forecast
Issued by NWS

Home | Current Version | Previous Version | Text Only | Print | Product List | Glossary On
Versions: 1 2 3 4 5 6 7 8 9 10 11 12 13 14
947
FTUS43 KJKL 190215 AAA
TAFSME
TAF AMD
KSME 190215Z 1902/1924 25012G20KT P6SM SCT035
     FM190300 19015G27KT P6SM BKN035
      TEMPO 1903/1904 3SM -SHRA OVC030
     FM190800 30012G20KT P6SM BKN030
     FM191900 29008KT P6SM SCT035=

USA.gov is the U.S. government's official web portal to all federal, state and local government web resources and services.